Time;durP1;ratioP1;P1;durP2;ratioP2;P2;SDS_P1;SDS_P2;PMS_P1;PMS_P2;Temp;Humidity;BMP_temperature;BMP_pressure;BME280_temperature;BME280_humidity;BME280_pressure;Samples;Min_cycle;Max_cycle;Signal;HPM_P1;HPM_P2
2021/05/15 00:00:31;;;;;;;3.00;0.68;;;8.50;99.90;;;7.70;86.69;96845.66;4950017;28;20393;-67
2021/05/15 00:02:59;;;;;;;1.42;0.50;;;8.50;99.90;;;7.80;86.15;96845.25;4950395;28;20062;-66
2021/05/15 00:05:26;;;;;;;1.92;0.57;;;8.50;99.90;;;7.76;86.43;96849.72;4951291;28;20077;-66
2021/05/15 00:07:52;;;;;;;1.45;0.70;;;8.50;99.90;;;7.77;86.33;96840.22;4947577;28;20028;-66
2021/05/15 00:10:21;;;;;;;4.63;0.80;;;8.40;99.90;;;7.73;87.07;96842.09;4946519;29;20166;-66
2021/05/15 00:12:47;;;;;;;1.50;0.70;;;8.40;99.90;;;7.74;87.05;96833.44;4947921;28;20122;-66
2021/05/15 00:15:15;;;;;;;1.30;0.80;;;8.40;99.90;;;7.80;86.87;96842.66;4931476;29;20046;-67
2021/05/15 00:17:41;;;;;;;3.00;0.93;;;8.40;99.90;;;7.78;87.29;96836.72;4946666;29;20413;-66
2021/05/15 00:20:15;;;;;;;7.43;1.23;;;8.50;99.90;;;7.88;86.96;96841.44;4916013;29;20035;-66
2021/05/15 00:22:43;;;;;;;3.33;1.00;;;8.50;99.90;;;7.93;86.27;96838.66;4914602;29;20054;-66
2021/05/15 00:25:12;;;;;;;2.00;1.10;;;8.50;99.90;;;7.87;86.50;96833.78;4933520;29;20043;-66
2021/05/15 00:27:39;;;;;;;3.55;0.80;;;8.50;99.90;;;7.82;87.17;96846.84;4934079;29;20039;-66
2021/05/15 00:30:07;;;;;;;1.83;0.90;;;8.60;99.90;;;7.97;86.58;96829.84;4930968;29;20039;-66
2021/05/15 00:32:33;;;;;;;1.88;0.98;;;8.60;99.90;;;8.01;86.36;96834.00;4931523;29;20039;-66
2021/05/15 00:34:59;;;;;;;4.10;0.82;;;8.60;99.90;;;7.95;86.47;96845.41;4924371;29;20344;-66
2021/05/15 00:37:26;;;;;;;2.10;0.80;;;8.70;99.90;;;7.96;86.45;96835.94;4932044;28;20095;-66
2021/05/15 00:39:52;;;;;;;3.83;0.95;;;8.70;99.90;;;7.97;86.58;96832.44;4946946;28;20027;-66
2021/05/15 00:42:17;;;;;;;3.90;0.98;;;8.80;99.90;;;8.03;86.31;96824.44;4951662;28;20035;-66
2021/05/15 00:44:44;;;;;;;1.60;0.70;;;8.70;99.90;;;7.94;86.66;96825.66;4931647;29;20035;-66
2021/05/15 00:47:20;;;;;;;1.95;0.90;;;8.70;99.90;;;8.02;86.65;96822.75;4915975;29;20043;-67
2021/05/15 00:49:48;;;;;;;4.35;1.10;;;8.70;99.90;;;8.02;86.55;96821.91;4920463;29;20122;-66
2021/05/15 00:52:14;;;;;;;2.15;1.00;;;8.80;99.90;;;8.01;86.59;96823.66;4940578;28;20043;-66
2021/05/15 00:54:42;;;;;;;2.63;0.90;;;8.80;99.90;;;8.04;86.30;96818.34;4947157;28;20409;-66
2021/05/15 00:57:10;;;;;;;1.70;0.90;;;8.80;99.90;;;8.02;86.57;96820.16;4950975;28;20122;-66
2021/05/15 00:59:38;;;;;;;2.67;1.00;;;8.70;99.90;;;7.93;86.58;96816.22;4927225;29;20123;-66
2021/05/15 01:02:07;;;;;;;1.55;0.90;;;8.70;99.90;;;7.93;86.63;96816.22;4920726;29;20518;-66
2021/05/15 01:04:33;;;;;;;2.65;1.10;;;8.70;99.90;;;8.00;86.64;96805.63;4914414;29;20043;-66
2021/05/15 01:07:00;;;;;;;1.80;1.02;;;8.70;99.90;;;8.01;86.57;96805.56;4946023;28;20076;-66
2021/05/15 01:09:26;;;;;;;3.20;1.10;;;8.60;99.90;;;7.93;86.77;96811.06;4948135;29;20042;-66
2021/05/15 01:11:52;;;;;;;2.50;1.20;;;8.60;99.90;;;7.91;86.83;96804.28;4931227;28;20507;-67
2021/05/15 01:14:18;;;;;;;2.88;1.10;;;8.60;99.90;;;7.84;87.21;96808.03;4939320;28;20130;-66
2021/05/15 01:16:44;;;;;;;5.63;1.10;;;8.70;99.90;;;7.85;87.44;96809.75;4942997;28;20114;-66
2021/05/15 01:19:13;;;;;;;2.72;0.95;;;8.60;99.90;;;7.91;86.98;96805.16;4950621;28;20031;-66
2021/05/15 01:21:39;;;;;;;2.60;1.15;;;8.60;99.90;;;7.80;87.74;96816.84;4948691;28;20129;-66
2021/05/15 01:24:06;;;;;;;1.65;0.98;;;8.50;99.90;;;7.86;87.53;96801.91;4941358;28;20126;-66
2021/05/15 01:26:32;;;;;;;3.75;1.20;;;8.50;99.90;;;7.94;87.43;96811.91;4944899;28;20063;-66
2021/05/15 01:29:02;;;;;;;3.83;1.10;;;8.60;99.90;;;7.90;87.55;96806.03;4914967;29;20039;-66
2021/05/15 01:31:29;;;;;;;3.22;1.10;;;8.60;99.90;;;8.03;87.18;96800.31;4922331;29;20131;-66
2021/05/15 01:33:56;;;;;;;3.28;1.25;;;8.70;99.90;;;7.89;87.93;96796.63;4935198;28;20035;-66
2021/05/15 01:36:24;;;;;;;4.43;1.00;;;8.70;99.90;;;7.95;88.08;96801.50;4920844;28;20102;-66
2021/05/15 01:38:50;;;;;;;5.22;1.33;;;8.80;99.90;;;7.86;87.96;96807.06;4941641;28;20502;-66
2021/05/15 01:41:19;;;;;;;2.47;1.38;;;8.80;99.90;;;8.07;86.28;96794.09;4943337;28;20110;-66
2021/05/15 01:43:46;;;;;;;3.95;1.40;;;8.80;99.90;;;8.10;86.24;96794.81;4922971;29;20044;-66
2021/05/15 01:46:12;;;;;;;1.60;1.08;;;8.80;99.90;;;8.10;86.16;96799.97;4929636;29;20074;-66
2021/05/15 01:48:39;;;;;;;2.75;1.27;;;8.90;99.90;;;8.14;86.37;96793.78;4918251;28;20050;-66
2021/05/15 01:51:11;;;;;;;2.97;1.30;;;8.90;99.90;;;8.12;86.38;96794.75;4931464;29;20043;-66
2021/05/15 01:53:43;;;;;;;2.72;1.40;;;8.90;99.90;;;8.04;86.59;96796.84;4914486;28;20135;-66
2021/05/15 01:56:13;;;;;;;2.60;1.80;;;8.90;99.90;;;8.03;86.39;96796.00;4947099;28;20694;-66
2021/05/15 01:58:40;;;;;;;4.75;1.63;;;8.90;99.90;;;8.06;86.49;96787.25;4950675;28;20035;-66
2021/05/15 02:01:06;;;;;;;2.90;1.15;;;8.90;99.90;;;8.10;86.32;96778.47;4916456;29;20046;-66
2021/05/15 02:03:35;;;;;;;2.65;1.60;;;8.90;99.90;;;8.04;85.56;96783.91;4922070;29;20039;-66
2021/05/15 02:06:01;;;;;;;2.95;1.35;;;8.90;99.90;;;7.99;85.86;96776.38;4946082;29;20036;-66
2021/05/15 02:08:27;;;;;;;4.07;1.98;;;8.90;99.90;;;7.91;86.71;96791.38;4916584;29;20046;-66
2021/05/15 02:10:56;;;;;;;5.20;2.53;;;8.90;99.90;;;7.87;86.79;96779.50;4931026;29;20409;-66
2021/05/15 02:13:25;;;;;;;3.67;1.90;;;9.00;99.90;;;7.95;87.02;96769.66;4917750;29;20186;-66
2021/05/15 02:15:51;;;;;;;4.03;2.15;;;8.90;99.90;;;7.90;86.81;96795.69;4948578;28;20439;-66
2021/05/15 02:18:17;;;;;;;5.50;1.88;;;8.90;99.90;;;7.95;86.12;96788.56;4924147;29;20060;-66
2021/05/15 02:20:44;;;;;;;9.38;2.53;;;8.90;99.90;;;7.90;87.16;96793.13;4942704;28;20095;-66
2021/05/15 02:23:13;;;;;;;4.95;2.17;;;8.90;99.90;;;8.04;86.18;96789.09;4938542;28;20048;-66
2021/05/15 02:25:40;;;;;;;4.05;2.53;;;8.90;99.90;;;7.97;86.23;96784.19;4935559;29;20047;-66
2021/05/15 02:28:06;;;;;;;6.00;2.47;;;8.90;99.90;;;8.08;85.60;96791.47;4928863;29;20031;-66
2021/05/15 02:30:33;;;;;;;7.35;2.78;;;8.90;99.90;;;7.97;86.04;96793.69;4938037;28;20571;-66
2021/05/15 02:33:00;;;;;;;4.57;2.72;;;8.90;99.90;;;7.85;86.19;96799.41;4915953;29;20431;-66
2021/05/15 02:35:26;;;;;;;4.20;2.25;;;9.00;99.90;;;8.04;85.08;96789.09;4935934;28;20055;-66
2021/05/15 02:37:53;;;;;;;4.07;2.22;;;8.90;99.90;;;8.09;85.26;96776.78;4939013;29;20114;-66
2021/05/15 02:40:23;;;;;;;3.63;1.85;;;9.00;99.90;;;8.15;85.34;96768.75;4932701;29;20130;-66
2021/05/15 02:42:51;;;;;;;3.22;2.13;;;8.90;99.90;;;7.99;86.08;96778.13;4935986;29;20072;-66
2021/05/15 02:45:20;;;;;;;3.08;1.77;;;9.00;99.90;;;8.02;85.86;96781.38;4918049;29;20071;-66
2021/05/15 02:47:47;;;;;;;4.30;2.05;;;9.00;99.90;;;7.96;86.05;96776.50;4929451;29;20039;-66
2021/05/15 02:50:15;;;;;;;5.63;2.00;;;9.00;99.90;;;8.09;85.47;96769.84;4917988;29;20042;-66
2021/05/15 02:52:42;;;;;;;6.95;3.05;;;8.90;99.90;;;7.95;86.32;96780.81;4941903;28;20051;-66
2021/05/15 02:55:15;;;;;;;2.92;2.38;;;9.00;99.90;;;8.11;85.16;96778.38;4931944;29;20023;-66
2021/05/15 02:57:43;;;;;;;3.83;2.28;;;9.00;99.90;;;7.89;86.37;96773.38;4949181;28;20032;-66
2021/05/15 03:00:13;;;;;;;3.08;1.90;;;9.10;99.90;;;8.13;84.89;96775.75;4947230;28;20349;-66
2021/05/15 03:02:39;;;;;;;3.53;2.00;;;9.00;99.90;;;8.06;85.45;96764.00;4922425;29;20047;-66
2021/05/15 03:05:11;;;;;;;3.75;2.13;;;9.00;99.90;;;8.14;84.65;96769.66;4950126;28;20078;-66
2021/05/15 03:07:37;;;;;;;3.15;2.42;;;9.00;99.90;;;8.01;85.41;96765.97;4928770;29;20044;-66
2021/05/15 03:10:06;;;;;;;4.97;2.47;;;9.00;99.90;;;8.06;85.01;96770.00;4941730;28;20043;-66
2021/05/15 03:12:32;;;;;;;5.72;2.45;;;9.00;99.90;;;7.96;84.98;96779.94;4925421;29;20051;-66
2021/05/15 03:14:58;;;;;;;3.33;2.00;;;9.00;99.90;;;8.11;84.66;96767.22;4930773;29;20054;-66
2021/05/15 03:17:24;;;;;;;4.97;2.70;;;9.00;99.90;;;8.05;84.65;96773.50;4932287;29;20110;-66
2021/05/15 03:19:52;;;;;;;5.53;3.20;;;9.00;99.90;;;7.92;85.01;96778.38;4951723;28;20042;-66
2021/05/15 03:22:23;;;;;;;4.28;2.38;;;9.10;99.90;;;8.06;84.03;96771.75;4927985;29;20043;-66
2021/05/15 03:24:49;;;;;;;7.00;2.58;;;9.00;99.90;;;7.97;84.20;96770.44;4943034;28;20197;-66
2021/05/15 03:27:15;;;;;;;3.67;2.80;;;9.00;99.90;;;8.14;83.41;96769.66;4931453;29;20433;-66
2021/05/15 03:29:42;;;;;;;6.22;2.72;;;9.00;99.90;;;8.04;84.06;96769.22;4942330;28;20074;-66
2021/05/15 03:32:10;;;;;;;5.18;2.30;;;9.00;99.90;;;8.08;83.64;96775.94;4929272;29;20063;-66
2021/05/15 03:34:36;;;;;;;5.07;2.70;;;9.00;99.90;;;7.95;84.75;96780.00;4946144;28;20547;-66
2021/05/15 03:37:03;;;;;;;5.03;2.42;;;9.00;99.90;;;8.03;84.79;96775.31;4917730;29;20028;-66
2021/05/15 03:39:29;;;;;;;3.75;2.25;;;9.00;99.90;;;8.07;84.75;96774.25;4949617;28;20404;-66
2021/05/15 03:41:55;;;;;;;4.00;2.33;;;8.90;99.90;;;8.00;85.30;96765.09;4935343;28;20063;-66
2021/05/15 03:44:21;;;;;;;5.05;2.47;;;8.90;99.90;;;7.93;85.73;96768.88;4927590;29;20035;-66
2021/05/15 03:46:48;;;;;;;5.50;2.95;;;9.00;99.90;;;7.91;85.50;96775.84;4940862;29;20106;-66
2021/05/15 03:49:15;;;;;;;7.57;2.70;;;8.90;99.90;;;7.80;86.32;96771.19;4923023;29;20547;-66
2021/05/15 03:51:41;;;;;;;4.85;3.45;;;9.00;99.90;;;7.95;85.46;96767.91;4948886;28;20518;-66
2021/05/15 03:54:07;;;;;;;7.03;3.53;;;9.00;99.90;;;7.93;85.67;96776.63;4947838;28;20055;-66
2021/05/15 03:56:33;;;;;;;3.85;2.40;;;8.90;99.90;;;7.97;85.40;96776.44;4923122;29;20031;-66
2021/05/15 03:58:58;;;;;;;6.20;3.97;;;8.90;99.90;;;7.90;85.98;96772.44;4929151;29;20479;-66
2021/05/15 04:01:24;;;;;;;5.82;3.00;;;9.00;99.90;;;7.92;85.34;96788.72;4927202;29;20050;-66
2021/05/15 04:03:50;;;;;;;6.43;3.08;;;8.90;99.90;;;8.00;85.50;96774.63;4931921;28;20047;-66
2021/05/15 04:06:16;;;;;;;6.57;3.58;;;8.90;99.90;;;8.00;85.82;96764.28;4941435;28;20126;-66
2021/05/15 04:08:42;;;;;;;6.97;4.00;;;9.00;99.90;;;7.82;86.12;96774.53;4937495;28;20354;-66
2021/05/15 04:11:09;;;;;;;4.38;3.17;;;9.00;99.90;;;8.08;85.30;96773.38;4932182;29;20051;-66
2021/05/15 04:16:15;;;;;;;6.57;3.58;;;9.00;99.90;;;8.00;84.60;96765.09;4945083;29;20180;-66
2021/05/15 04:18:41;;;;;;;5.32;3.50;;;8.90;99.90;;;7.97;84.81;96775.59;4946693;28;20403;-66
2021/05/15 04:21:07;;;;;;;8.77;4.10;;;8.90;99.90;;;7.82;85.81;96778.84;4942318;28;20420;-66
2021/05/15 04:23:33;;;;;;;6.80;4.28;;;8.90;99.90;;;7.90;85.70;96766.44;4934364;28;20131;-66
2021/05/15 04:26:00;;;;;;;8.57;4.13;;;9.00;99.90;;;7.93;85.69;96780.03;4950432;29;20460;-66
2021/05/15 04:28:27;;;;;;;6.38;3.20;;;8.90;99.90;;;7.97;84.81;96785.94;4917457;28;20118;-66
2021/05/15 04:30:53;;;;;;;7.65;4.80;;;9.00;99.90;;;7.89;85.08;96781.13;4945940;28;20034;-66
2021/05/15 04:33:23;;;;;;;6.03;3.95;;;9.10;99.90;;;7.92;85.45;96772.38;4936292;28;20376;-66
2021/05/15 04:35:51;;;;;;;7.75;4.47;;;9.00;99.90;;;7.91;85.07;96778.44;4933624;28;20091;-66
2021/05/15 04:38:18;;;;;;;5.05;3.78;;;9.00;99.90;;;7.91;84.96;96778.44;4946627;28;20429;-66
2021/05/15 04:40:44;;;;;;;6.63;3.80;;;9.00;99.90;;;7.90;84.71;96776.78;4954159;28;20125;-65
2021/05/15 04:43:11;;;;;;;7.43;4.32;;;9.00;99.90;;;7.81;84.96;96784.94;4925227;29;20047;-66
2021/05/15 04:45:37;;;;;;;5.75;4.13;;;9.10;99.90;;;8.07;84.48;96779.44;4933553;29;20043;-66
2021/05/15 04:48:03;;;;;;;6.60;3.92;;;9.10;99.90;;;8.00;83.86;96783.19;4951221;28;20367;-65
2021/05/15 04:50:29;;;;;;;8.05;4.60;;;9.10;99.90;;;7.98;83.93;96782.44;4943827;28;20142;-66
2021/05/15 04:52:55;;;;;;;6.40;4.00;;;9.00;99.90;;;7.98;84.16;96779.84;4950840;28;20123;-65
2021/05/15 04:55:21;;;;;;;6.38;3.95;;;9.00;99.90;;;8.20;83.32;96765.97;4951703;29;20411;-66
2021/05/15 04:57:47;;;;;;;7.07;4.78;;;9.00;99.90;;;7.89;84.74;96781.13;4944319;28;20116;-65
2021/05/15 05:00:14;;;;;;;6.07;3.97;;;9.10;99.90;;;8.08;83.72;96777.69;4948748;28;20531;-65
2021/05/15 05:02:39;;;;;;;7.88;5.18;;;9.10;99.90;;;7.99;84.74;96770.38;4934935;28;20043;-66
2021/05/15 05:05:07;;;;;;;7.18;3.58;;;9.10;99.90;;;8.06;84.05;96764.84;4944153;28;20074;-65
2021/05/15 05:07:33;;;;;;;6.32;4.07;;;9.10;99.90;;;8.18;83.47;96771.19;4930704;29;20040;-66
2021/05/15 05:09:59;;;;;;;7.60;4.68;;;9.10;99.90;;;8.11;84.12;96774.97;4937969;28;20046;-66
2021/05/15 05:12:25;;;;;;;8.07;4.22;;;9.10;99.90;;;8.23;83.69;96758.88;4934118;29;20043;-65
2021/05/15 05:14:52;;;;;;;6.40;3.47;;;9.20;99.90;;;8.51;82.85;96762.81;4948964;28;20043;-66
2021/05/15 05:17:17;;;;;;;6.40;4.28;;;9.20;99.90;;;8.36;83.35;96756.56;4951453;29;20040;-66
2021/05/15 05:19:43;;;;;;;8.95;4.22;;;9.30;99.90;;;8.14;83.71;96772.22;4914725;29;20035;-66
2021/05/15 05:22:09;;;;;;;7.05;4.35;;;9.30;99.90;;;8.24;83.65;96763.16;4919699;29;20493;-65
2021/05/15 05:24:35;;;;;;;6.00;3.83;;;9.30;99.90;;;8.23;84.54;96755.47;4949932;29;20130;-66
2021/05/15 05:27:02;;;;;;;6.88;3.67;;;9.30;99.90;;;8.37;83.30;96751.34;4950862;28;20412;-65
2021/05/15 05:29:28;;;;;;;7.80;3.95;;;9.30;99.90;;;8.20;83.22;96764.22;4941035;28;20088;-66
2021/05/15 05:31:55;;;;;;;6.50;4.15;;;9.30;99.90;;;8.24;83.84;96759.75;4917711;28;20062;-65
2021/05/15 05:34:21;;;;;;;6.93;4.28;;;9.30;99.90;;;8.32;83.50;96749.88;4933826;29;20038;-65
2021/05/15 05:36:48;;;;;;;8.43;4.57;;;9.30;99.90;;;8.26;84.17;96763.09;4918962;29;20047;-66
2021/05/15 05:39:19;;;;;;;10.98;5.68;;;9.20;99.90;;;8.00;85.45;96761.69;4946513;28;20106;-65
2021/05/15 05:41:46;;;;;;;7.85;4.65;;;9.30;99.90;;;8.37;83.54;96768.63;4938372;28;20109;-66
2021/05/15 05:44:13;;;;;;;5.93;4.18;;;9.30;99.90;;;8.38;83.87;96765.94;4949913;28;20040;-66
2021/05/15 05:46:39;;;;;;;7.93;4.70;;;9.30;99.90;;;8.26;83.64;96766.50;4950541;28;20417;-66
2021/05/15 05:49:05;;;;;;;8.85;5.70;;;9.30;99.90;;;8.23;84.05;96766.63;4940619;28;20150;-66
2021/05/15 05:51:32;;;;;;;8.90;5.97;;;9.30;99.90;;;8.56;83.05;96763.44;4942128;28;20126;-66
2021/05/15 05:53:58;;;;;;;8.48;4.85;;;9.30;99.90;;;8.43;83.35;96750.22;4921220;29;20142;-66
2021/05/15 05:56:24;;;;;;;10.02;6.55;;;9.40;99.90;;;8.08;85.18;96765.59;4948238;28;20126;-66
2021/05/15 05:58:50;;;;;;;15.77;7.15;;;9.40;99.90;;;8.27;84.36;96757.00;4952736;28;20043;-67
2021/05/15 06:01:17;;;;;;;13.63;8.07;;;9.30;99.90;;;8.13;85.21;96763.66;4932283;29;20035;-66
2021/05/15 06:03:43;;;;;;;12.60;8.55;;;9.40;99.90;;;8.18;85.09;96758.25;4918022;29;20039;-66
2021/05/15 06:06:10;;;;;;;12.50;8.60;;;9.40;99.90;;;8.20;85.08;96759.03;4949911;28;20035;-66
2021/05/15 06:08:37;;;;;;;10.82;7.20;;;9.40;99.90;;;8.45;84.02;96757.94;4935995;28;20100;-66
2021/05/15 06:11:03;;;;;;;12.27;7.57;;;9.40;99.90;;;8.38;84.82;96749.59;4933434;28;20040;-66
2021/05/15 06:13:29;;;;;;;9.13;6.63;;;9.40;99.90;;;8.65;83.50;96747.47;4952377;29;20078;-66
2021/05/15 06:15:55;;;;;;;11.30;7.28;;;9.40;99.90;;;8.33;84.67;96749.81;4937259;29;20047;-68
2021/05/15 06:18:21;;;;;;;12.73;7.47;;;9.40;99.90;;;8.46;84.26;96755.28;4948843;28;20107;-68
2021/05/15 06:20:47;;;;;;;14.18;7.85;;;9.40;99.90;;;8.27;85.60;96765.59;4951776;28;21486;-68
2021/05/15 06:23:15;;;;;;;12.27;7.10;;;9.50;99.90;;;8.48;85.49;96747.44;4952697;29;20078;-66
2021/05/15 06:25:41;;;;;;;11.27;7.07;;;9.50;99.90;;;8.13;87.52;96758.47;4942016;28;20499;-66
2021/05/15 06:28:09;;;;;;;13.65;8.27;;;9.30;99.90;;;8.14;87.46;96761.88;4948046;29;20128;-65
2021/05/15 06:30:35;;;;;;;10.63;6.80;;;9.10;99.90;;;8.16;87.81;96758.34;4918620;28;20042;-65
2021/05/15 06:33:01;;;;;;;12.43;7.57;;;9.00;99.90;;;8.26;88.22;96761.34;4920505;29;20126;-66
2021/05/15 06:35:28;;;;;;;13.95;7.00;;;9.00;99.90;;;8.16;88.28;96758.34;4936442;29;20038;-65
2021/05/15 06:37:53;;;;;;;10.43;7.03;;;8.90;99.90;;;8.38;88.14;96752.16;4953573;29;20043;-66
2021/05/15 06:40:19;;;;;;;9.88;7.05;;;9.00;99.90;;;8.13;88.84;96762.81;4954157;28;20039;-65
2021/05/15 06:42:45;;;;;;;11.88;7.22;;;9.10;99.90;;;8.15;88.83;96763.59;4952440;28;20058;-65
2021/05/15 06:45:12;;;;;;;7.50;5.78;;;9.20;99.90;;;8.31;89.84;96750.78;4952356;28;20038;-66
2021/05/15 06:47:38;;;;;;;6.65;4.43;;;9.20;99.90;;;8.47;88.50;96756.94;4951840;28;20075;-66
2021/05/15 06:50:09;;;;;;;6.63;3.97;;;9.30;99.90;;;8.46;88.58;96750.09;4947935;28;20420;-66
2021/05/15 06:52:36;;;;;;;5.38;3.58;;;9.30;99.90;;;8.11;89.66;96760.28;4945156;28;20051;-68
2021/05/15 06:55:03;;;;;;;8.20;4.82;;;9.30;99.90;;;7.93;90.78;96754.22;4920437;29;20035;-68
2021/05/15 06:57:29;;;;;;;5.35;3.70;;;9.30;99.90;;;8.34;89.48;96750.63;4947093;28;20042;-68
2021/05/15 06:59:55;;;;;;;9.98;4.68;;;9.20;99.90;;;7.98;90.52;96756.59;4931436;28;20237;-68
2021/05/15 07:02:21;;;;;;;9.52;4.50;;;9.20;99.90;;;8.00;91.17;96754.78;4951688;28;20062;-67
2021/05/15 07:04:47;;;;;;;7.18;4.50;;;9.30;99.90;;;8.11;90.02;96749.13;4950920;28;20039;-68
2021/05/15 07:07:13;;;;;;;4.68;3.33;;;9.30;99.90;;;8.46;88.95;96744.06;4951262;28;20126;-68
2021/05/15 07:09:38;;;;;;;10.43;5.40;;;9.30;99.90;;;8.29;90.12;96739.69;4951642;28;20043;-65
2021/05/15 07:12:05;;;;;;;9.38;5.22;;;9.50;99.90;;;8.55;88.83;96735.88;4952149;29;20330;-68
2021/05/15 07:14:30;;;;;;;8.23;4.35;;;9.70;99.90;;;8.86;87.37;96731.81;4934853;29;20123;-68
2021/05/15 07:16:56;;;;;;;6.63;3.08;;;9.90;99.90;;;8.78;86.38;96738.22;4934643;28;20094;-68
2021/05/15 07:19:22;;;;;;;5.22;3.60;;;9.90;99.90;;;8.98;86.74;96737.19;4944424;28;20039;-68
2021/05/15 07:21:48;;;;;;;4.68;2.83;;;9.90;99.90;;;9.26;85.60;96735.84;4946135;28;20138;-68
2021/05/15 07:24:14;;;;;;;10.23;3.80;;;10.10;99.90;;;9.15;85.51;96738.97;4945605;28;20047;-68
2021/05/15 07:26:39;;;;;;;9.23;3.25;;;10.10;99.90;;;8.66;86.28;96740.53;4948660;29;20411;-66
2021/05/15 07:29:05;;;;;;;8.70;2.85;;;10.10;99.90;;;8.84;86.88;96739.66;4950581;28;20466;-68
2021/05/15 07:31:32;;;;;;;6.07;3.47;;;10.00;99.90;;;8.79;86.68;96734.69;4947563;28;20381;-68
2021/05/15 07:33:57;;;;;;;4.20;2.90;;;9.90;99.90;;;8.76;86.57;96728.84;4933273;28;20036;-65
2021/05/15 07:36:23;;;;;;;5.93;2.72;;;10.00;99.90;;;8.93;85.55;96722.81;4950565;28;20061;-67
2021/05/15 07:38:49;;;;;;;5.05;2.83;;;10.00;99.90;;;9.25;84.92;96723.78;4945590;28;20452;-65
2021/05/15 07:41:16;;;;;;;4.30;3.13;;;10.10;99.90;;;9.12;85.08;96727.91;4949896;28;20031;-65
2021/05/15 07:43:42;;;;;;;9.40;3.40;;;10.00;99.90;;;9.14;86.12;96723.50;4951716;28;20034;-67
2021/05/15 07:46:09;;;;;;;4.55;2.90;;;10.00;99.90;;;9.12;85.10;96726.19;4952528;28;20043;-65
2021/05/15 07:48:39;;;;;;;13.00;4.63;;;10.00;99.90;;;8.81;87.80;96738.97;4948351;28;20058;-68
2021/05/15 07:51:08;;;;;;;6.00;2.50;;;9.90;99.90;;;8.60;87.05;96718.41;4922251;29;20039;-65
2021/05/15 07:53:35;;;;;;;1.70;0.93;;;9.70;99.90;;;8.43;82.33;96739.88;4922686;28;20091;-68
2021/05/15 07:56:03;;;;;;;2.50;0.95;;;9.40;99.90;;;8.22;83.82;96728.78;4932048;29;20391;-68
2021/05/15 07:58:29;;;;;;;1.38;0.90;;;9.20;99.90;;;8.13;83.63;96727.47;4918456;29;20177;-68
2021/05/15 08:00:55;;;;;;;2.60;1.15;;;9.10;99.90;;;8.21;84.44;96723.66;4952235;28;20082;-68
2021/05/15 08:03:21;;;;;;;0.60;0.50;;;9.00;99.90;;;8.09;82.95;96720.75;4951422;28;20046;-68
2021/05/15 08:05:47;;;;;;;2.42;0.90;;;9.00;99.90;;;8.25;85.10;96726.03;4943114;28;20043;-68
2021/05/15 08:08:13;;;;;;;2.67;1.20;;;8.90;99.90;;;8.10;85.40;96724.19;4916119;29;20491;-66
2021/05/15 08:10:39;;;;;;;8.82;1.15;;;8.90;99.90;;;7.99;85.98;96724.69;4928330;29;20510;-68
2021/05/15 08:13:05;;;;;;;1.50;0.70;;;8.90;99.90;;;7.90;85.27;96725.94;4905676;29;20062;-66
2021/05/15 08:15:31;;;;;;;4.65;1.50;;;8.90;99.90;;;7.89;86.73;96726.00;4934141;29;20473;-68
2021/05/15 08:17:57;;;;;;;2.17;0.88;;;8.90;99.90;;;8.10;86.36;96716.44;4934257;29;20039;-66
2021/05/15 08:20:24;;;;;;;2.50;0.80;;;8.90;99.90;;;8.20;85.74;96722.84;4933503;29;20086;-66
2021/05/15 08:22:50;;;;;;;5.35;1.10;;;8.90;99.90;;;8.25;86.48;96715.69;4934656;29;20043;-66
2021/05/15 08:25:19;;;;;;;1.88;0.95;;;9.10;99.90;;;7.97;87.34;96721.31;4950467;28;20043;-66
2021/05/15 08:27:50;;;;;;;1.90;0.80;;;9.20;99.90;;;8.36;87.00;96715.19;4947750;28;20035;-69
2021/05/15 08:30:18;;;;;;;5.57;1.25;;;9.30;99.90;;;8.52;86.67;96711.00;4948913;28;20499;-66
2021/05/15 08:32:45;;;;;;;4.50;0.90;;;9.50;99.90;;;8.78;86.54;96707.16;4948768;28;20047;-67
2021/05/15 08:35:12;;;;;;;1.90;0.70;;;9.60;99.90;;;8.77;84.22;96713.22;4925923;29;20043;-66
2021/05/15 08:37:38;;;;;;;1.98;0.70;;;9.60;99.90;;;8.52;84.77;96711.00;4932711;29;20039;-68
2021/05/15 08:40:08;;;;;;;1.33;0.70;;;9.50;99.90;;;8.76;83.67;96713.31;4938657;28;20491;-67
2021/05/15 08:42:37;;;;;;;3.13;1.10;;;9.50;99.90;;;8.73;84.46;96716.88;4943893;28;20099;-66
2021/05/15 08:45:06;;;;;;;2.95;0.90;;;9.70;99.90;;;8.61;85.28;96714.06;4935639;29;20028;-67
2021/05/15 08:47:36;;;;;;;1.77;0.80;;;9.70;99.90;;;9.00;86.73;96711.25;4913938;29;20046;-66
2021/05/15 08:50:13;;;;;;;1.58;0.80;;;9.90;99.90;;;9.27;86.10;96714.19;4918360;29;20027;-67
2021/05/15 08:52:44;;;;;;;1.95;0.93;;;10.20;99.90;;;9.47;84.38;96714.94;4951371;28;20147;-67
2021/05/15 08:55:24;;;;;;;1.25;0.80;;;10.40;99.90;;;9.46;84.28;96705.47;4948500;28;20034;-67
2021/05/15 08:57:51;;;;;;;1.33;0.77;;;10.40;99.90;;;9.26;83.97;96699.59;4946671;28;20232;-67
2021/05/15 09:00:28;;;;;;;2.88;1.35;;;10.20;99.90;;;9.03;84.81;96711.09;4944719;28;20032;-66
2021/05/15 09:02:58;;;;;;;3.60;1.35;;;10.00;99.90;;;9.02;85.65;96704.25;4933140;29;20500;-67
2021/05/15 09:05:33;;;;;;;2.85;1.30;;;9.90;99.90;;;9.37;84.90;96705.06;4930496;29;20464;-67
2021/05/15 09:08:02;;;;;;;2.65;1.38;;;10.10;99.90;;;9.51;85.71;96704.34;4946348;28;20069;-66
2021/05/15 09:10:33;;;;;;;2.45;0.93;;;10.30;99.90;;;9.62;84.97;96707.22;4954740;28;20484;-67
2021/05/15 09:13:21;;;;;;;2.33;0.90;;;10.50;99.90;;;9.88;83.33;96699.78;4944344;29;20142;-67
2021/05/15 09:15:50;;;;;;;4.45;1.13;;;10.60;99.90;;;10.27;83.64;96689.00;4931528;29;20161;-67
2021/05/15 09:18:24;;;;;;;2.08;0.90;;;11.10;99.90;;;10.44;82.20;96692.41;4954869;28;20043;-67
2021/05/15 09:20:56;;;;;;;1.90;1.20;;;11.40;99.90;;;10.98;83.08;96686.75;4947054;28;20060;-67
2021/05/15 09:23:27;;;;;;;2.67;1.30;;;12.00;99.90;;;11.28;80.65;96686.72;4924699;29;20040;-67
2021/05/15 09:26:07;;;;;;;4.03;1.30;;;12.60;99.90;;;11.70;81.50;96669.47;4954746;28;20047;-67
2021/05/15 09:28:56;;;;;;;2.88;1.10;;;13.10;99.90;;;12.42;77.01;96677.94;4928479;28;20566;-67
2021/05/15 09:31:38;;;;;;;3.22;1.30;;;13.60;99.90;;;12.25;76.00;96666.03;4950203;28;20122;-66
2021/05/15 09:34:08;;;;;;;3.63;1.48;;;13.70;99.90;;;11.65;75.87;96674.09;4931444;29;20759;-67
2021/05/15 09:36:37;;;;;;;5.20;1.40;;;13.80;99.90;;;11.56;76.35;96656.47;4931074;29;20468;-67
2021/05/15 09:39:11;;;;;;;5.28;2.40;;;13.40;99.90;;;10.84;78.72;96659.00;4939010;28;20143;-67
2021/05/15 09:41:44;;;;;;;4.28;1.00;;;13.30;99.90;;;11.93;77.00;96650.69;4905074;29;20043;-66
2021/05/15 09:44:16;;;;;;;;;;;13.00;99.90;;;11.53;76.42;96652.28;4918469;29;20522;-66
2021/05/15 09:46:46;;;;;;;5.30;1.50;;;13.10;99.90;;;11.35;76.05;96663.81;4922988;29;19926;-67
2021/05/15 09:49:16;;;;;;;5.60;1.35;;;13.30;99.90;;;11.63;76.44;96636.94;4946537;28;20046;-66
2021/05/15 09:51:56;;;;;;;6.15;1.30;;;12.90;99.90;;;12.24;72.77;96630.50;4937113;29;20050;-66
2021/05/15 09:54:29;;;;;;;3.50;1.10;;;13.00;99.90;;;11.10;75.20;96640.13;4950672;29;20137;-67
2021/05/15 09:56:57;;;;;;;11.38;1.67;;;12.90;99.90;;;11.77;73.83;96644.75;4952223;29;20039;-66
2021/05/15 09:59:30;;;;;;;7.65;1.35;;;12.90;99.90;;;11.07;75.42;96652.47;4949698;29;20505;-67
2021/05/15 10:02:07;;;;;;;7.80;1.23;;;12.90;99.90;;;11.22;74.52;96635.97;4933911;29;20039;-66
2021/05/15 10:04:43;;;;;;;10.65;1.52;;;12.60;99.90;;;11.11;75.45;96635.78;4929017;29;20570;-67
2021/05/15 10:07:20;;;;;;;4.05;1.25;;;12.60;99.90;;;11.41;76.10;96632.25;4922689;29;20110;-67
2021/05/15 10:09:48;;;;;;;6.32;1.35;;;12.90;99.90;;;11.86;71.45;96631.19;4939788;29;20159;-67
2021/05/15 10:12:18;;;;;;;22.08;12.32;;;13.00;99.90;;;11.24;74.74;96638.47;4918690;29;20127;-67
2021/05/15 10:14:46;;;;;;;5.60;1.83;;;13.00;99.90;;;11.47;75.24;96639.66;4933158;28;20111;-67
2021/05/15 10:17:13;;;;;;;5.15;1.23;;;13.40;99.90;;;11.68;72.46;96624.53;4946247;29;20042;-67
2021/05/15 10:19:40;;;;;;;7.45;1.63;;;13.30;99.90;;;11.26;73.69;96631.41;4933297;29;20119;-67
2021/05/15 10:22:07;;;;;;;5.35;1.50;;;13.50;99.90;;;11.40;75.80;96626.19;4927236;29;20043;-67
2021/05/15 10:24:36;;;;;;;7.07;1.10;;;13.60;99.90;;;11.64;72.95;96618.69;4935401;29;20135;-67
2021/05/15 10:27:07;;;;;;;8.52;1.83;;;13.80;99.90;;;11.75;71.61;96620.63;4949289;29;20435;-66
2021/05/15 10:29:53;;;;;;;3.83;1.30;;;13.70;99.90;;;11.55;73.51;96621.00;4937492;29;20051;-67
2021/05/15 10:32:29;;;;;;;5.32;1.30;;;13.70;99.90;;;12.23;71.05;96602.84;4922599;29;20492;-67
2021/05/15 10:34:59;;;;;;;6.68;1.65;;;13.40;99.90;;;12.02;71.87;96601.59;4921880;29;20108;-67